Ty Lotus — DSNU7 — position and weather

sailwx.info

Track history (hours):
 
Tides and Currents Weather Stations Pressure Air Temp Water Temp Dewpoint Dewpoint Depression Visibility Wind Speed Wind Dir Waves Ship Positions

Ty Lotus

Last reported at 2016-Nov-26 10:10 UTC. Time now 2016-Dec-09 04:01 UTC.
Position N 34°37' E 135°02'.
Warning: this ship's position is 12 days out of date.

Length 80 m; draft 6.2 m.

Type: Cargo ship. MMSI: 440324000.

Date/timePositionNaut miles runAvg speedWind from/ knotsBaromVisibWave heightAir tempDewpointWater temp
2016-Nov-26 10:10N 34°37' E 135°02'610.2
2016-Nov-26 09:33N 34°37' E 135°09'6 5.7
2016-Nov-26 08:33N 34°41' E 135°13'0 0.4
2016-Nov-26 07:31N 34°42' E 135°13'0 0.0
2016-Nov-26 06:31N 34°42' E 135°13'0 0.0
2016-Nov-26 05:31N 34°42' E 135°13'0 0.0
2016-Nov-26 04:31N 34°42' E 135°13'0 0.0
2016-Nov-26 03:25N 34°42' E 135°13'0 0.0
2016-Nov-26 02:31N 34°42' E 135°13'0 0.0
2016-Nov-26 01:19N 34°42' E 135°13'0 0.0
2016-Nov-26 00:31N 34°42' E 135°13'0 0.0
2016-Nov-25 23:28N 34°42' E 135°13'0 0.0
2016-Nov-25 22:33N 34°42' E 135°13'6 5.9
2016-Nov-25 21:33N 34°36' E 135°15'10 9.9
2016-Nov-25 20:33N 34°28' E 135°09'1110.4
2016-Nov-25 19:32N 34°19' E 135°00'1010.2
2016-Nov-25 18:32N 34°09' E 134°60'240 8.5
2016-Nov-24 14:13N 35°08' E 139°42'810.6
2016-Nov-24 13:31N 35°15' E 139°46'1010.0
2016-Nov-24 12:33N 35°24' E 139°42'5 4.7
2016-Nov-24 11:33N 35°28' E 139°42'0 0.0
2016-Nov-24 10:33N 35°28' E 139°42'0 0.0
2016-Nov-24 09:33N 35°28' E 139°42'0 0.0
2016-Nov-24 08:32N 35°28' E 139°42'0 0.0
2016-Nov-24 07:31N 35°28' E 139°42'0 0.0
2016-Nov-24 06:31N 35°28' E 139°42'0 0.0
2016-Nov-24 05:31N 35°28' E 139°42'0 0.0
2016-Nov-24 04:31N 35°28' E 139°42'0 0.0
2016-Nov-24 03:33N 35°28' E 139°42'0 0.0
2016-Nov-24 02:31N 35°28' E 139°42'0 0.0
2016-Nov-24 01:33N 35°28' E 139°42'0 0.0
2016-Nov-24 00:33N 35°28' E 139°42'0 0.0
2016-Nov-23 23:33N 35°28' E 139°42'0 0.0
2016-Nov-23 22:33N 35°28' E 139°42'2 2.0
2016-Nov-23 21:34N 35°27' E 139°43'0 0.2
2016-Nov-23 20:31N 35°26' E 139°43'0 0.0
2016-Nov-23 19:31N 35°26' E 139°43'0 0.0
2016-Nov-23 18:31N 35°26' E 139°43'0 0.0
2016-Nov-23 17:31N 35°26' E 139°43'0 0.0
2016-Nov-23 16:31N 35°26' E 139°43'0 0.0
2016-Nov-23 15:31N 35°26' E 139°43'0 0.0
2016-Nov-23 14:31N 35°26' E 139°43'0 0.0
2016-Nov-23 13:31N 35°26' E 139°43'0 0.0
2016-Nov-23 12:31N 35°26' E 139°43'0 0.0
2016-Nov-23 11:32N 35°26' E 139°43'0 0.0
2016-Nov-23 10:29N 35°26' E 139°43'0 0.0
2016-Nov-23 09:32N 35°26' E 139°43'0 0.0
2016-Nov-23 08:32N 35°26' E 139°43'0 0.0
2016-Nov-23 07:32N 35°26' E 139°43'0 0.0
2016-Nov-23 06:32N 35°26' E 139°43'0 0.0
2016-Nov-23 03:33N 35°26' E 139°43'0 0.0
2016-Nov-23 02:33N 35°26' E 139°43'0 0.0
2016-Nov-23 00:33N 35°26' E 139°43'0 0.0
2016-Nov-22 23:33N 35°26' E 139°43'0 0.0
2016-Nov-22 22:33N 35°26' E 139°43'0 0.0
2016-Nov-22 20:32N 35°26' E 139°43'0 0.0
2016-Nov-22 19:29N 35°26' E 139°43'0 0.0
2016-Nov-22 17:32N 35°26' E 139°43'0 0.1
2016-Nov-22 16:32N 35°26' E 139°43'0 0.0
2016-Nov-22 15:32N 35°26' E 139°43'0 0.0
2016-Nov-22 14:32N 35°26' E 139°43'0 0.0
2016-Nov-22 13:32N 35°26' E 139°43'0 0.0
2016-Nov-22 10:32N 35°26' E 139°43'0 0.0
2016-Nov-22 09:32N 35°26' E 139°43'3 3.3
2016-Nov-22 08:33N 35°28' E 139°47'1110.6
2016-Nov-22 07:33N 35°35' E 139°56'6 0.2
2016-Nov-20 21:32N 35°41' E 139°58'3 0.4
2016-Nov-20 12:17N 35°37' E 139°58'0 0.0
2016-Nov-20 07:32N 35°37' E 139°58'4 1.8
2016-Nov-20 05:33N 35°34' E 139°56'10 9.7
2016-Nov-20 04:34N 35°26' E 139°49'4 4.2
2016-Nov-20 03:31N 35°24' E 139°45'0 0.0
2016-Nov-20 01:32N 35°24' E 139°45'0 0.0
2016-Nov-19 23:34N 35°24' E 139°45'0 0.1
2016-Nov-19 22:32N 35°24' E 139°45'0 0.0
2016-Nov-19 20:31N 35°24' E 139°45'0 0.0
2016-Nov-19 19:31N 35°24' E 139°45'0 0.0
2016-Nov-19 17:28N 35°24' E 139°45'0 0.0
2016-Nov-19 16:31N 35°24' E 139°45'0 0.0
2016-Nov-19 14:28N 35°24' E 139°45'0 0.0
2016-Nov-19 11:31N 35°24' E 139°45'0 0.0
2016-Nov-19 09:30N 35°24' E 139°45'0 0.0
2016-Nov-19 07:33N 35°24' E 139°45'0 0.0
2016-Nov-19 05:33N 35°24' E 139°45'0 0.1
2016-Nov-19 04:33N 35°24' E 139°45'0 0.0
2016-Nov-19 03:32N 35°24' E 139°45'0 0.0
2016-Nov-19 02:32N 35°24' E 139°45'0 0.0
2016-Nov-19 01:32N 35°24' E 139°45'0 0.1
2016-Nov-19 00:32N 35°24' E 139°45'0 0.0
2016-Nov-18 23:32N 35°24' E 139°45'16 0.3
2016-Nov-16 22:30N 35°36' E 139°58'0 0.0
2016-Nov-16 19:33N 35°36' E 139°58'4 4.5
2016-Nov-16 18:33N 35°33' E 139°55'1010.1
2016-Nov-16 17:33N 35°25' E 139°47'9 9.4
2016-Nov-16 16:33N 35°15' E 139°47'  
Track history (hours):
 
Tides and Currents Weather Stations Pressure Air Temp Water Temp Dewpoint Dewpoint Depression Visibility Wind Speed Wind Dir Waves Ship Positions

Ty Lotus

Last reported at 2016-Nov-26 10:10 UTC. Time now 2016-Dec-09 04:01 UTC.
Position N 34°37' E 135°02'.
Warning: this ship's position is 12 days out of date.

Length 80 m; draft 6.2 m.

Type: Cargo ship. MMSI: 440324000.

Date/timePositionNaut miles runAvg speedWind from/ knotsBaromVisibWave heightAir tempDewpointWater temp
2016-Nov-26 10:10N 34°37' E 135°02'610.2
2016-Nov-26 09:33N 34°37' E 135°09'6 5.7
2016-Nov-26 08:33N 34°41' E 135°13'0 0.4
2016-Nov-26 07:31N 34°42' E 135°13'0 0.0
2016-Nov-26 06:31N 34°42' E 135°13'0 0.0
2016-Nov-26 05:31N 34°42' E 135°13'0 0.0
2016-Nov-26 04:31N 34°42' E 135°13'0 0.0
2016-Nov-26 03:25N 34°42' E 135°13'0 0.0
2016-Nov-26 02:31N 34°42' E 135°13'0 0.0
2016-Nov-26 01:19N 34°42' E 135°13'0 0.0
2016-Nov-26 00:31N 34°42' E 135°13'0 0.0
2016-Nov-25 23:28N 34°42' E 135°13'0 0.0
2016-Nov-25 22:33N 34°42' E 135°13'6 5.9
2016-Nov-25 21:33N 34°36' E 135°15'10 9.9
2016-Nov-25 20:33N 34°28' E 135°09'1110.4
2016-Nov-25 19:32N 34°19' E 135°00'1010.2
2016-Nov-25 18:32N 34°09' E 134°60'240 8.5
2016-Nov-24 14:13N 35°08' E 139°42'810.6
2016-Nov-24 13:31N 35°15' E 139°46'1010.0
2016-Nov-24 12:33N 35°24' E 139°42'5 4.7
2016-Nov-24 11:33N 35°28' E 139°42'0 0.0
2016-Nov-24 10:33N 35°28' E 139°42'0 0.0
2016-Nov-24 09:33N 35°28' E 139°42'0 0.0
2016-Nov-24 08:32N 35°28' E 139°42'0 0.0
2016-Nov-24 07:31N 35°28' E 139°42'0 0.0
2016-Nov-24 06:31N 35°28' E 139°42'0 0.0
2016-Nov-24 05:31N 35°28' E 139°42'0 0.0
2016-Nov-24 04:31N 35°28' E 139°42'0 0.0
2016-Nov-24 03:33N 35°28' E 139°42'0 0.0
2016-Nov-24 02:31N 35°28' E 139°42'0 0.0
2016-Nov-24 01:33N 35°28' E 139°42'0 0.0
2016-Nov-24 00:33N 35°28' E 139°42'0 0.0
2016-Nov-23 23:33N 35°28' E 139°42'0 0.0
2016-Nov-23 22:33N 35°28' E 139°42'2 2.0
2016-Nov-23 21:34N 35°27' E 139°43'0 0.2
2016-Nov-23 20:31N 35°26' E 139°43'0 0.0
2016-Nov-23 19:31N 35°26' E 139°43'0 0.0
2016-Nov-23 18:31N 35°26' E 139°43'0 0.0
2016-Nov-23 17:31N 35°26' E 139°43'0 0.0
2016-Nov-23 16:31N 35°26' E 139°43'0 0.0
2016-Nov-23 15:31N 35°26' E 139°43'0 0.0
2016-Nov-23 14:31N 35°26' E 139°43'0 0.0
2016-Nov-23 13:31N 35°26' E 139°43'0 0.0
2016-Nov-23 12:31N 35°26' E 139°43'0 0.0
2016-Nov-23 11:32N 35°26' E 139°43'0 0.0
2016-Nov-23 10:29N 35°26' E 139°43'0 0.0
2016-Nov-23 09:32N 35°26' E 139°43'0 0.0
2016-Nov-23 08:32N 35°26' E 139°43'0 0.0
2016-Nov-23 07:32N 35°26' E 139°43'0 0.0
2016-Nov-23 06:32N 35°26' E 139°43'0 0.0
2016-Nov-23 03:33N 35°26' E 139°43'0 0.0
2016-Nov-23 02:33N 35°26' E 139°43'0 0.0
2016-Nov-23 00:33N 35°26' E 139°43'0 0.0
2016-Nov-22 23:33N 35°26' E 139°43'0 0.0
2016-Nov-22 22:33N 35°26' E 139°43'0 0.0
2016-Nov-22 20:32N 35°26' E 139°43'0 0.0
2016-Nov-22 19:29N 35°26' E 139°43'0 0.0
2016-Nov-22 17:32N 35°26' E 139°43'0 0.1
2016-Nov-22 16:32N 35°26' E 139°43'0 0.0
2016-Nov-22 15:32N 35°26' E 139°43'0 0.0
2016-Nov-22 14:32N 35°26' E 139°43'0 0.0
2016-Nov-22 13:32N 35°26' E 139°43'0 0.0
2016-Nov-22 10:32N 35°26' E 139°43'0 0.0
2016-Nov-22 09:32N 35°26' E 139°43'3 3.3
2016-Nov-22 08:33N 35°28' E 139°47'1110.6
2016-Nov-22 07:33N 35°35' E 139°56'6 0.2
2016-Nov-20 21:32N 35°41' E 139°58'3 0.4
2016-Nov-20 12:17N 35°37' E 139°58'0 0.0
2016-Nov-20 07:32N 35°37' E 139°58'4 1.8
2016-Nov-20 05:33N 35°34' E 139°56'10 9.7
2016-Nov-20 04:34N 35°26' E 139°49'4 4.2
2016-Nov-20 03:31N 35°24' E 139°45'0 0.0
2016-Nov-20 01:32N 35°24' E 139°45'0 0.0
2016-Nov-19 23:34N 35°24' E 139°45'0 0.1
2016-Nov-19 22:32N 35°24' E 139°45'0 0.0
2016-Nov-19 20:31N 35°24' E 139°45'0 0.0
2016-Nov-19 19:31N 35°24' E 139°45'0 0.0
2016-Nov-19 17:28N 35°24' E 139°45'0 0.0
2016-Nov-19 16:31N 35°24' E 139°45'0 0.0
2016-Nov-19 14:28N 35°24' E 139°45'0 0.0
2016-Nov-19 11:31N 35°24' E 139°45'0 0.0
2016-Nov-19 09:30N 35°24' E 139°45'0 0.0
2016-Nov-19 07:33N 35°24' E 139°45'0 0.0
2016-Nov-19 05:33N 35°24' E 139°45'0 0.1
2016-Nov-19 04:33N 35°24' E 139°45'0 0.0
2016-Nov-19 03:32N 35°24' E 139°45'0 0.0
2016-Nov-19 02:32N 35°24' E 139°45'0 0.0
2016-Nov-19 01:32N 35°24' E 139°45'0 0.1
2016-Nov-19 00:32N 35°24' E 139°45'0 0.0
2016-Nov-18 23:32N 35°24' E 139°45'16 0.3
2016-Nov-16 22:30N 35°36' E 139°58'0 0.0
2016-Nov-16 19:33N 35°36' E 139°58'4 4.5
2016-Nov-16 18:33N 35°33' E 139°55'1010.1
2016-Nov-16 17:33N 35°25' E 139°47'9 9.4
2016-Nov-16 16:33N 35°15' E 139°47'  

Dump ship's entire track history